Time;durP1;ratioP1;P1;durP2;ratioP2;P2;SDS_P1;SDS_P2;PMS_P1;PMS_P2;Temp;Humidity;BMP_temperature;BMP_pressure;BME280_temperature;BME280_humidity;BME280_pressure;Samples;Min_cycle;Max_cycle;Signal;HPM_P1;HPM_P2
2023/04/02 00:01:19;;;;;;;0.63;0.63;;;;;;;;;;5063346;28;20242;-68
2023/04/02 00:04:04;;;;;;;0.20;0.20;;;;;;;;;;5072939;28;20206;-69
2023/04/02 00:06:38;;;;;;;0.57;0.53;;;;;;;;;;5066615;28;20285;-68
2023/04/02 00:09:17;;;;;;;0.17;0.17;;;;;;;;;;5069916;28;20221;-69
2023/04/02 00:11:44;;;;;;;0.20;0.20;;;;;;;;;;5068425;28;20569;-69
2023/04/02 00:14:15;;;;;;;0.20;0.20;;;;;;;;;;5069167;28;20230;-69
2023/04/02 00:16:41;;;;;;;0.17;0.17;;;;;;;;;;5067872;28;20244;-68
2023/04/02 00:19:12;;;;;;;0.20;0.20;;;;;;;;;;5069302;28;20283;-69
2023/04/02 00:21:42;;;;;;;0.20;0.20;;;;;;;;;;5067674;28;20261;-69
2023/04/02 00:24:13;;;;;;;0.20;0.20;;;;;;;;;;5069375;28;20270;-68
2023/04/02 00:26:43;;;;;;;0.20;0.20;;;;;;;;;;5067482;28;20250;-69
2023/04/02 00:29:10;;;;;;;0.13;0.13;;;;;;;;;;5069067;28;20480;-68
2023/04/02 00:31:38;;;;;;;0.20;0.20;;;;;;;;;;5067060;28;20453;-69
2023/04/02 00:34:04;;;;;;;0.20;0.20;;;;;;;;;;5069468;28;20469;-68
2023/04/02 00:36:33;;;;;;;0.37;0.37;;;;;;;;;;5066219;28;20619;-68
2023/04/02 00:39:02;;;;;;;0.20;0.20;;;;;;;;;;5070244;28;20207;-69
2023/04/02 00:41:29;;;;;;;0.20;0.20;;;;;;;;;;5065730;28;20309;-69
2023/04/02 00:43:57;;;;;;;0.83;0.83;;;;;;;;;;5070594;28;20230;-69
2023/04/02 00:46:28;;;;;;;0.20;0.20;;;;;;;;;;5064805;28;20350;-68
2023/04/02 00:48:58;;;;;;;0.20;0.20;;;;;;;;;;5070676;28;20408;-69
2023/04/02 00:51:27;;;;;;;0.20;0.20;;;;;;;;;;5065097;28;20241;-69
2023/04/02 00:53:54;;;;;;;0.20;0.20;;;;;;;;;;5070748;28;20278;-69
2023/04/02 00:56:25;;;;;;;0.33;0.33;;;;;;;;;;5064442;28;20601;-68
2023/04/02 00:58:53;;;;;;;0.20;0.20;;;;;;;;;;5070963;28;20196;-69
2023/04/02 01:01:21;;;;;;;0.20;0.20;;;;;;;;;;5064109;28;20242;-68
2023/04/02 01:03:58;;;;;;;0.20;0.20;;;;;;;;;;5071388;28;20245;-69
2023/04/02 01:06:28;;;;;;;0.20;0.20;;;;;;;;;;5064682;28;20262;-68
2023/04/02 01:09:00;;;;;;;0.20;0.20;;;;;;;;;;5069873;28;20211;-69
2023/04/02 01:11:43;;;;;;;0.20;0.20;;;;;;;;;;5064914;28;20309;-69
2023/04/02 01:14:16;;;;;;;0.20;0.20;;;;;;;;;;5068380;28;20225;-68
2023/04/02 01:16:46;;;;;;;0.20;0.20;;;;;;;;;;5066890;28;20312;-69
2023/04/02 01:19:21;;;;;;;0.20;0.20;;;;;;;;;;5067467;28;20203;-69
2023/04/02 01:21:57;;;;;;;0.20;0.20;;;;;;;;;;5067618;28;20575;-69
2023/04/02 01:24:25;;;;;;;0.20;0.20;;;;;;;;;;5066363;28;20469;-69
2023/04/02 01:26:56;;;;;;;0.20;0.20;;;;;;;;;;5067974;28;20272;-69
2023/04/02 01:29:25;;;;;;;0.20;0.20;;;;;;;;;;5066376;28;20215;-69
2023/04/02 01:31:53;;;;;;;0.20;0.20;;;;;;;;;;5067851;28;20585;-69
2023/04/02 01:34:22;;;;;;;0.20;0.20;;;;;;;;;;5066461;28;20204;-70
2023/04/02 01:36:54;;;;;;;0.20;0.20;;;;;;;;;;5067202;28;20440;-69
2023/04/02 01:39:26;;;;;;;0.20;0.20;;;;;;;;;;5066222;28;20526;-68
2023/04/02 01:41:55;;;;;;;0.20;0.20;;;;;;;;;;5067677;28;20324;-68
2023/04/02 01:44:24;;;;;;;0.13;0.13;;;;;;;;;;5065515;28;20204;-68
2023/04/02 01:46:52;;;;;;;0.23;0.23;;;;;;;;;;5067586;28;20242;-68
2023/04/02 01:49:20;;;;;;;0.20;0.20;;;;;;;;;;5066351;28;20450;-69
2023/04/02 01:51:51;;;;;;;0.20;0.20;;;;;;;;;;5067011;28;20241;-69
2023/04/02 01:54:18;;;;;;;0.20;0.20;;;;;;;;;;5066414;28;20482;-69
2023/04/02 01:56:45;;;;;;;0.20;0.20;;;;;;;;;;5066429;28;20242;-69
2023/04/02 01:59:12;;;;;;;0.20;0.20;;;;;;;;;;5067044;28;20207;-69
2023/04/02 02:01:42;;;;;;;0.20;0.20;;;;;;;;;;5065537;28;20306;-68
2023/04/02 02:04:11;;;;;;;0.20;0.20;;;;;;;;;;5067450;28;20260;-68
2023/04/02 02:06:38;;;;;;;0.20;0.20;;;;;;;;;;5065369;28;20253;-69
2023/04/02 02:09:06;;;;;;;0.20;0.20;;;;;;;;;;5067780;28;20282;-68
2023/04/02 02:11:35;;;;;;;0.40;0.40;;;;;;;;;;5064716;28;20242;-68
2023/04/02 02:14:02;;;;;;;0.20;0.20;;;;;;;;;;5068062;28;20206;-68
2023/04/02 02:16:30;;;;;;;0.20;0.20;;;;;;;;;;5063601;28;20246;-68
2023/04/02 02:18:59;;;;;;;0.20;0.20;;;;;;;;;;5068697;28;20277;-69
2023/04/02 02:21:34;;;;;;;0.20;0.20;;;;;;;;;;5063611;28;20253;-69
2023/04/02 02:24:03;;;;;;;0.20;0.20;;;;;;;;;;5068170;28;20445;-69
2023/04/02 02:26:32;;;;;;;0.20;0.20;;;;;;;;;;5064252;28;20238;-69
2023/04/02 02:29:00;;;;;;;0.20;0.20;;;;;;;;;;5067943;28;20253;-68
2023/04/02 02:31:29;;;;;;;0.27;0.27;;;;;;;;;;5063567;28;20316;-69
2023/04/02 02:33:58;;;;;;;0.33;0.33;;;;;;;;;;5068666;28;20281;-70
2023/04/02 02:36:26;;;;;;;2.03;1.10;;;;;;;;;;5063555;28;20315;-68
2023/04/02 02:38:56;;;;;;;0.20;0.20;;;;;;;;;;5068497;28;20206;-69
2023/04/02 02:41:25;;;;;;;0.20;0.20;;;;;;;;;;5062950;28;20248;-68
2023/04/02 02:43:57;;;;;;;0.20;0.20;;;;;;;;;;5068609;28;20517;-68
2023/04/02 02:46:24;;;;;;;0.20;0.20;;;;;;;;;;5062709;28;20267;-69
2023/04/02 02:48:52;;;;;;;0.20;0.20;;;;;;;;;;5068990;28;20229;-69
2023/04/02 02:51:21;;;;;;;0.20;0.20;;;;;;;;;;5062060;28;20307;-68
2023/04/02 02:53:49;;;;;;;0.20;0.20;;;;;;;;;;5069201;28;20206;-69
2023/04/02 02:56:19;;;;;;;0.20;0.20;;;;;;;;;;5061983;28;20242;-70
2023/04/02 02:58:45;;;;;;;0.20;0.20;;;;;;;;;;5069438;28;20244;-70
2023/04/02 03:01:12;;;;;;;0.20;0.20;;;;;;;;;;5061469;28;20264;-69
2023/04/02 03:03:38;;;;;;;0.20;0.20;;;;;;;;;;5070531;28;20277;-70
2023/04/02 03:06:06;;;;;;;1.80;1.70;;;;;;;;;;5060558;28;20418;-69
2023/04/02 03:08:35;;;;;;;0.20;0.20;;;;;;;;;;5071244;28;20244;-70
2023/04/02 03:11:03;;;;;;;0.20;0.20;;;;;;;;;;5060012;28;20245;-69
2023/04/02 03:13:34;;;;;;;0.20;0.20;;;;;;;;;;5071499;28;20283;-69
2023/04/02 03:16:02;;;;;;;0.20;0.20;;;;;;;;;;5059953;28;20469;-69
2023/04/02 03:18:37;;;;;;;0.20;0.20;;;;;;;;;;5071687;28;20453;-69
2023/04/02 03:21:08;;;;;;;0.20;0.20;;;;;;;;;;5060239;28;20299;-69
2023/04/02 03:23:36;;;;;;;0.20;0.20;;;;;;;;;;5070966;28;20233;-69
2023/04/02 03:26:06;;;;;;;0.20;0.20;;;;;;;;;;5060137;28;20246;-69
2023/04/02 03:28:36;;;;;;;0.30;0.30;;;;;;;;;;5072978;28;20220;-69
2023/04/02 03:31:04;;;;;;;0.20;0.20;;;;;;;;;;5063857;28;20241;-69
2023/04/02 03:33:33;;;;;;;0.30;0.30;;;;;;;;;;5075091;28;20552;-70
2023/04/02 03:36:02;;;;;;;0.20;0.20;;;;;;;;;;5063323;28;20303;-70
2023/04/02 03:38:31;;;;;;;0.20;0.20;;;;;;;;;;5075220;28;20246;-70
2023/04/02 03:41:01;;;;;;;0.20;0.20;;;;;;;;;;5063097;28;20305;-70
2023/04/02 03:43:29;;;;;;;0.20;0.20;;;;;;;;;;5075322;28;20273;-70
2023/04/02 03:46:00;;;;;;;0.20;0.20;;;;;;;;;;5062800;28;20240;-69
2023/04/02 03:48:28;;;;;;;0.20;0.20;;;;;;;;;;5075481;28;20209;-69
2023/04/02 03:50:57;;;;;;;0.83;0.83;;;;;;;;;;5062554;28;20263;-69
2023/04/02 03:53:25;;;;;;;0.20;0.20;;;;;;;;;;5075563;28;20245;-70
2023/04/02 03:55:52;;;;;;;0.20;0.20;;;;;;;;;;5060721;28;20507;-69
2023/04/02 03:58:21;;;;;;;0.20;0.20;;;;;;;;;;5077347;28;20273;-69
2023/04/02 04:00:50;;;;;;;0.40;0.40;;;;;;;;;;5060992;28;20577;-69
2023/04/02 04:03:19;;;;;;;3.30;1.13;;;;;;;;;;5076615;28;20210;-69
2023/04/02 04:05:48;;;;;;;0.20;0.20;;;;;;;;;;5059765;28;20501;-69
2023/04/02 04:08:17;;;;;;;0.20;0.20;;;;;;;;;;5077698;28;20278;-69
2023/04/02 04:10:44;;;;;;;0.20;0.20;;;;;;;;;;5060443;28;20316;-69
2023/04/02 04:13:13;;;;;;;0.20;0.20;;;;;;;;;;5076942;28;20238;-69
2023/04/02 04:15:42;;;;;;;0.50;0.50;;;;;;;;;;5059966;28;20246;-69
2023/04/02 04:18:12;;;;;;;0.20;0.20;;;;;;;;;;5077077;28;20206;-70
2023/04/02 04:20:44;;;;;;;0.23;0.23;;;;;;;;;;5060079;28;20275;-69
2023/04/02 04:23:17;;;;;;;0.20;0.20;;;;;;;;;;5076810;28;20502;-69
2023/04/02 04:25:43;;;;;;;0.20;0.20;;;;;;;;;;5060586;28;20247;-70
2023/04/02 04:28:15;;;;;;;0.27;0.27;;;;;;;;;;5076799;28;20454;-70
2023/04/02 04:30:47;;;;;;;0.20;0.20;;;;;;;;;;5060154;28;20297;-70
2023/04/02 04:33:21;;;;;;;0.40;0.40;;;;;;;;;;5076268;28;20439;-69
2023/04/02 04:35:51;;;;;;;0.30;0.30;;;;;;;;;;5060737;28;20239;-70
2023/04/02 04:38:26;;;;;;;0.20;0.20;;;;;;;;;;5075295;28;20209;-70
2023/04/02 04:40:54;;;;;;;0.20;0.20;;;;;;;;;;5061351;28;20468;-70
2023/04/02 04:43:28;;;;;;;0.20;0.20;;;;;;;;;;5075053;28;20278;-69
2023/04/02 04:45:56;;;;;;;8.70;2.93;;;;;;;;;;5061391;28;20472;-69
2023/04/02 04:48:25;;;;;;;0.27;0.27;;;;;;;;;;5074530;28;20276;-69
2023/04/02 04:50:55;;;;;;;0.20;0.20;;;;;;;;;;5060886;28;20251;-69
2023/04/02 04:53:23;;;;;;;0.20;0.20;;;;;;;;;;5074924;28;20208;-71
2023/04/02 04:55:51;;;;;;;0.20;0.20;;;;;;;;;;5060449;28;20264;-69
2023/04/02 04:58:21;;;;;;;0.30;0.30;;;;;;;;;;5075136;28;20236;-69
2023/04/02 05:00:54;;;;;;;0.30;0.30;;;;;;;;;;5060270;28;20312;-69
2023/04/02 05:03:24;;;;;;;0.33;0.33;;;;;;;;;;5074489;28;20206;-69
2023/04/02 05:05:51;;;;;;;0.20;0.20;;;;;;;;;;5060698;28;20260;-69
2023/04/02 05:08:20;;;;;;;0.20;0.20;;;;;;;;;;5074992;28;20206;-70
2023/04/02 05:10:49;;;;;;;0.20;0.20;;;;;;;;;;5060112;28;20494;-70
2023/04/02 05:13:17;;;;;;;0.47;0.47;;;;;;;;;;5075240;28;20555;-69
2023/04/02 05:15:47;;;;;;;0.20;0.20;;;;;;;;;;5059646;28;20261;-70
2023/04/02 05:18:19;;;;;;;0.20;0.20;;;;;;;;;;5075313;28;20272;-70
2023/04/02 05:20:48;;;;;;;0.20;0.20;;;;;;;;;;5059792;28;20265;-70
2023/04/02 05:23:17;;;;;;;0.27;0.27;;;;;;;;;;5075126;28;20205;-69
2023/04/02 05:25:53;;;;;;;0.20;0.20;;;;;;;;;;5059180;28;20300;-69
2023/04/02 05:28:21;;;;;;;0.20;0.20;;;;;;;;;;5074167;28;20206;-69
2023/04/02 05:30:51;;;;;;;0.20;0.20;;;;;;;;;;5059483;28;20312;-69
2023/04/02 05:33:19;;;;;;;0.20;0.20;;;;;;;;;;5074606;28;20205;-70
2023/04/02 05:35:48;;;;;;;0.73;0.73;;;;;;;;;;5059575;28;20252;-70
2023/04/02 05:38:17;;;;;;;0.20;0.20;;;;;;;;;;5074766;28;20206;-69
2023/04/02 05:40:46;;;;;;;0.20;0.20;;;;;;;;;;5059088;28;20446;-69
2023/04/02 05:43:16;;;;;;;0.20;0.20;;;;;;;;;;5075053;28;20276;-69
2023/04/02 05:45:44;;;;;;;0.20;0.20;;;;;;;;;;5058542;28;20303;-70
2023/04/02 05:48:16;;;;;;;0.20;0.20;;;;;;;;;;5075358;28;20275;-70
2023/04/02 05:50:45;;;;;;;0.20;0.20;;;;;;;;;;5057732;28;20253;-69
2023/04/02 05:53:14;;;;;;;0.20;0.20;;;;;;;;;;5074666;28;20272;-69
2023/04/02 05:55:43;;;;;;;0.20;0.20;;;;;;;;;;5058455;28;20245;-69
2023/04/02 05:58:17;;;;;;;0.70;0.70;;;;;;;;;;5075029;28;20205;-69
2023/04/02 06:00:47;;;;;;;0.20;0.20;;;;;;;;;;5058241;28;20458;-69
2023/04/02 06:03:16;;;;;;;0.20;0.20;;;;;;;;;;5075044;28;20212;-69
2023/04/02 06:05:44;;;;;;;0.20;0.20;;;;;;;;;;5058328;28;20256;-69
2023/04/02 06:08:13;;;;;;;0.20;0.20;;;;;;;;;;5074852;28;20440;-70
2023/04/02 06:10:44;;;;;;;0.20;0.20;;;;;;;;;;5058204;28;20592;-70
2023/04/02 06:13:14;;;;;;;0.20;0.20;;;;;;;;;;5075040;28;20502;-70
2023/04/02 06:15:42;;;;;;;0.20;0.20;;;;;;;;;;5057979;28;20256;-70
2023/04/02 06:18:13;;;;;;;0.20;0.20;;;;;;;;;;5075049;28;20434;-69
2023/04/02 06:20:40;;;;;;;0.20;0.20;;;;;;;;;;5057649;28;20241;-69
2023/04/02 06:23:10;;;;;;;0.20;0.20;;;;;;;;;;5075206;28;20277;-69
2023/04/02 06:25:38;;;;;;;0.20;0.20;;;;;;;;;;5057344;28;20587;-69
2023/04/02 06:28:06;;;;;;;0.20;0.20;;;;;;;;;;5075252;28;20399;-69
2023/04/02 06:30:35;;;;;;;0.20;0.20;;;;;;;;;;5056615;28;20241;-70
2023/04/02 06:33:03;;;;;;;0.20;0.20;;;;;;;;;;5075750;28;20212;-70
2023/04/02 06:35:29;;;;;;;0.20;0.20;;;;;;;;;;5056159;28;20313;-70
2023/04/02 06:37:58;;;;;;;0.20;0.20;;;;;;;;;;5076319;28;20215;-70
2023/04/02 06:40:28;;;;;;;0.20;0.20;;;;;;;;;;5055630;28;20296;-69
2023/04/02 06:42:58;;;;;;;0.20;0.20;;;;;;;;;;5076484;28;20243;-69
2023/04/02 06:45:26;;;;;;;0.20;0.20;;;;;;;;;;5055523;28;20221;-69
2023/04/02 06:47:55;;;;;;;0.20;0.20;;;;;;;;;;5076760;28;20228;-69
2023/04/02 06:50:25;;;;;;;0.40;0.40;;;;;;;;;;5055244;28;20212;-70
2023/04/02 06:52:53;;;;;;;0.20;0.20;;;;;;;;;;5076859;28;20205;-69
2023/04/02 06:55:31;;;;;;;0.20;0.20;;;;;;;;;;5054630;28;20207;-69
2023/04/02 06:57:58;;;;;;;0.20;0.20;;;;;;;;;;5075971;28;20433;-69
2023/04/02 07:00:26;;;;;;;0.20;0.20;;;;;;;;;;5055274;28;20244;-70
2023/04/02 07:02:53;;;;;;;0.20;0.20;;;;;;;;;;5079173;28;20201;-70
2023/04/02 07:05:19;;;;;;;0.20;0.20;;;;;;;;;;5058976;28;20446;-71
2023/04/02 07:07:47;;;;;;;0.20;0.20;;;;;;;;;;5081266;28;20270;-69
2023/04/02 07:10:14;;;;;;;0.20;0.20;;;;;;;;;;5057807;28;20233;-68
2023/04/02 07:12:41;;;;;;;0.20;0.20;;;;;;;;;;5082145;28;20204;-70
2023/04/02 07:15:07;;;;;;;0.20;0.20;;;;;;;;;;5060992;28;20240;-68
2023/04/02 07:17:34;;;;;;;0.20;0.20;;;;;;;;;;5082686;28;20280;-70
2023/04/02 07:20:00;;;;;;;0.20;0.20;;;;;;;;;;5067153;28;20253;-70
2023/04/02 07:22:26;;;;;;;0.20;0.20;;;;;;;;;;5072375;28;20633;-69
2023/04/02 07:24:54;;;;;;;0.20;0.20;;;;;;;;;;5067399;28;20271;-70
2023/04/02 07:27:21;;;;;;;0.20;0.20;;;;;;;;;;5072370;28;20237;-72
2023/04/02 07:29:47;;;;;;;0.20;0.20;;;;;;;;;;5067001;28;20237;-70
2023/04/02 07:32:13;;;;;;;0.20;0.20;;;;;;;;;;5073027;28;20308;-70
2023/04/02 07:34:40;;;;;;;0.20;0.20;;;;;;;;;;5067190;28;20458;-71
2023/04/02 07:37:07;;;;;;;0.20;0.20;;;;;;;;;;5072122;28;20239;-70
2023/04/02 07:39:33;;;;;;;0.20;0.20;;;;;;;;;;5066769;28;20234;-70
2023/04/02 07:42:01;;;;;;;0.20;0.20;;;;;;;;;;5071077;28;20275;-69
2023/04/02 07:44:28;;;;;;;0.20;0.20;;;;;;;;;;5067270;28;20213;-69
2023/04/02 07:46:55;;;;;;;0.20;0.20;;;;;;;;;;5070381;28;20252;-70
2023/04/02 07:49:21;;;;;;;0.20;0.20;;;;;;;;;;5068348;28;20401;-70
2023/04/02 07:51:48;;;;;;;0.20;0.20;;;;;;;;;;5069255;28;20244;-70
2023/04/02 07:54:14;;;;;;;0.20;0.20;;;;;;;;;;5069243;28;20244;-70
2023/04/02 07:56:41;;;;;;;0.20;0.20;;;;;;;;;;5068131;28;20248;-70
2023/04/02 07:59:09;;;;;;;0.20;0.20;;;;;;;;;;5069695;28;20206;-70
2023/04/02 08:01:35;;;;;;;0.20;0.20;;;;;;;;;;5067507;28;20622;-69
2023/04/02 08:04:02;;;;;;;0.10;0.10;;;;;;;;;;5070608;28;20391;-70
2023/04/02 08:06:29;;;;;;;0.20;0.20;;;;;;;;;;5066619;28;20242;-70
2023/04/02 08:08:56;;;;;;;0.20;0.20;;;;;;;;;;5071052;28;20207;-69
2023/04/02 08:11:22;;;;;;;0.20;0.20;;;;;;;;;;5065618;28;20266;-69
2023/04/02 08:13:48;;;;;;;0.20;0.20;;;;;;;;;;5071217;28;20240;-70
2023/04/02 08:16:16;;;;;;;0.20;0.20;;;;;;;;;;5064727;28;20327;-70
2023/04/02 08:18:42;;;;;;;0.20;0.20;;;;;;;;;;5072617;28;20212;-70
2023/04/02 08:21:09;;;;;;;0.20;0.20;;;;;;;;;;5063622;28;20312;-70
2023/04/02 08:23:36;;;;;;;0.20;0.20;;;;;;;;;;5073184;28;20248;-69
2023/04/02 08:26:03;;;;;;;0.20;0.20;;;;;;;;;;5062828;28;20257;-69
2023/04/02 08:28:29;;;;;;;0.20;0.20;;;;;;;;;;5074316;28;20213;-69
2023/04/02 08:30:55;;;;;;;0.87;0.87;;;;;;;;;;5061824;28;20250;-70
2023/04/02 08:33:23;;;;;;;0.20;0.20;;;;;;;;;;5075115;28;20277;-70
2023/04/02 08:35:50;;;;;;;0.20;0.20;;;;;;;;;;5063846;28;20265;-70
2023/04/02 08:38:18;;;;;;;0.20;0.20;;;;;;;;;;5076115;28;20273;-70
2023/04/02 08:40:45;;;;;;;0.20;0.20;;;;;;;;;;5060357;28;20311;-69
2023/04/02 08:43:20;;;;;;;0.20;0.20;;;;;;;;;;5076213;28;20261;-69
2023/04/02 08:45:51;;;;;;;0.20;0.20;;;;;;;;;;5060269;28;20238;-69
2023/04/02 08:48:18;;;;;;;0.20;0.20;;;;;;;;;;5075345;28;20206;-70
2023/04/02 08:50:46;;;;;;;0.20;0.20;;;;;;;;;;5059992;28;20275;-69
2023/04/02 08:53:14;;;;;;;0.20;0.20;;;;;;;;;;5075957;28;20450;-69
2023/04/02 08:55:46;;;;;;;0.30;0.30;;;;;;;;;;5059562;28;20244;-70
2023/04/02 08:58:19;;;;;;;0.20;0.20;;;;;;;;;;5075500;28;20220;-69
2023/04/02 09:00:49;;;;;;;0.20;0.20;;;;;;;;;;5060543;28;20300;-70
2023/04/02 09:03:17;;;;;;;0.20;0.20;;;;;;;;;;5075259;28;20218;-69
2023/04/02 09:05:45;;;;;;;0.20;0.20;;;;;;;;;;5059766;28;20305;-69
2023/04/02 09:08:17;;;;;;;0.20;0.20;;;;;;;;;;5075927;28;20206;-70
2023/04/02 09:10:48;;;;;;;0.20;0.20;;;;;;;;;;5059528;28;20242;-69
2023/04/02 09:13:17;;;;;;;0.20;0.20;;;;;;;;;;5075355;28;20550;-69
2023/04/02 09:15:43;;;;;;;0.20;0.20;;;;;;;;;;5059412;28;20246;-70
2023/04/02 09:18:12;;;;;;;0.30;0.30;;;;;;;;;;5075857;28;20276;-70
2023/04/02 09:20:39;;;;;;;0.20;0.20;;;;;;;;;;5058930;28;20491;-71
2023/04/02 09:23:05;;;;;;;0.20;0.20;;;;;;;;;;5076265;28;20225;-70
2023/04/02 09:25:33;;;;;;;0.20;0.20;;;;;;;;;;5056984;28;20308;-71
2023/04/02 09:28:01;;;;;;;0.20;0.20;;;;;;;;;;5077282;28;20210;-72
2023/04/02 09:30:34;;;;;;;0.20;0.20;;;;;;;;;;5057287;28;20508;-70
2023/04/02 09:33:02;;;;;;;0.20;0.20;;;;;;;;;;5076779;28;20256;-69
2023/04/02 09:35:29;;;;;;;0.20;0.20;;;;;;;;;;5057325;28;20250;-72
2023/04/02 09:38:15;;;;;;;0.20;0.20;;;;;;;;;;5077457;28;20278;-69
2023/04/02 09:40:46;;;;;;;0.20;0.20;;;;;;;;;;5058871;28;20350;-73
2023/04/02 09:43:13;;;;;;;0.20;0.20;;;;;;;;;;5075068;28;20322;-73
2023/04/02 09:45:41;;;;;;;0.20;0.20;;;;;;;;;;5058866;28;20267;-67
2023/04/02 09:48:24;;;;;;;0.43;0.43;;;;;;;;;;5077946;28;20199;-67
2023/04/02 09:51:02;;;;;;;0.10;0.10;;;;;;;;;;5059874;28;20504;-67
2023/04/02 09:53:30;;;;;;;0.20;0.20;;;;;;;;;;5072797;28;20202;-67
2023/04/02 09:56:11;;;;;;;0.20;0.20;;;;;;;;;;5060466;28;20253;-67
2023/04/02 09:58:38;;;;;;;0.20;0.20;;;;;;;;;;5071550;28;20245;-67
2023/04/02 10:01:07;;;;;;;0.20;0.20;;;;;;;;;;5061201;28;20253;-67
2023/04/02 10:03:34;;;;;;;0.20;0.20;;;;;;;;;;5071909;28;20557;-67
2023/04/02 10:06:05;;;;;;;0.20;0.20;;;;;;;;;;5060986;28;20266;-69
2023/04/02 10:08:31;;;;;;;0.20;0.20;;;;;;;;;;5072452;28;20206;-68
2023/04/02 10:11:00;;;;;;;0.20;0.20;;;;;;;;;;5060538;28;20246;-68
2023/04/02 10:13:28;;;;;;;0.20;0.20;;;;;;;;;;5072878;28;20530;-69
2023/04/02 10:15:58;;;;;;;0.20;0.20;;;;;;;;;;5060095;28;20623;-69
2023/04/02 10:18:31;;;;;;;0.20;0.20;;;;;;;;;;5073260;28;20281;-74
2023/04/02 10:20:59;;;;;;;0.20;0.20;;;;;;;;;;5060253;28;20324;-68
2023/04/02 10:23:28;;;;;;;0.20;0.20;;;;;;;;;;5073125;28;20248;-67
2023/04/02 10:25:57;;;;;;;0.20;0.20;;;;;;;;;;5060222;28;20438;-66
2023/04/02 10:28:32;;;;;;;0.20;0.20;;;;;;;;;;5072603;28;20213;-67
2023/04/02 10:31:03;;;;;;;0.20;0.20;;;;;;;;;;5060403;28;20313;-67
2023/04/02 10:33:31;;;;;;;0.20;0.20;;;;;;;;;;5072997;28;20242;-67
2023/04/02 10:36:03;;;;;;;0.80;0.80;;;;;;;;;;5060115;28;20242;-67
2023/04/02 10:38:32;;;;;;;0.20;0.20;;;;;;;;;;5072190;28;20207;-66
2023/04/02 10:41:00;;;;;;;0.20;0.20;;;;;;;;;;5060702;28;20258;-67
2023/04/02 10:43:35;;;;;;;0.20;0.20;;;;;;;;;;5072369;28;20290;-67
2023/04/02 10:46:07;;;;;;;0.20;0.20;;;;;;;;;;5060414;28;20320;-67
2023/04/02 10:48:39;;;;;;;0.20;0.20;;;;;;;;;;5071507;28;20206;-67
2023/04/02 10:51:06;;;;;;;0.20;0.20;;;;;;;;;;5060884;28;20265;-67
2023/04/02 10:53:37;;;;;;;0.20;0.20;;;;;;;;;;5071242;28;20234;-67
2023/04/02 10:56:07;;;;;;;0.20;0.20;;;;;;;;;;5060634;28;20292;-67
2023/04/02 10:58:36;;;;;;;0.20;0.20;;;;;;;;;;5071830;28;20278;-67
2023/04/02 11:01:05;;;;;;;0.20;0.20;;;;;;;;;;5060303;28;20245;-67
2023/04/02 11:03:35;;;;;;;0.20;0.20;;;;;;;;;;5071575;28;20425;-67
2023/04/02 11:06:04;;;;;;;0.20;0.20;;;;;;;;;;5060152;28;20242;-67
2023/04/02 11:08:38;;;;;;;0.20;0.20;;;;;;;;;;5071637;28;20238;-67
2023/04/02 11:11:07;;;;;;;0.20;0.20;;;;;;;;;;5060298;28;20312;-67
2023/04/02 11:13:36;;;;;;;0.10;0.10;;;;;;;;;;5071334;28;20203;-67
2023/04/02 11:16:05;;;;;;;0.10;0.10;;;;;;;;;;5060382;28;20273;-67
2023/04/02 11:18:34;;;;;;;0.20;0.20;;;;;;;;;;5071245;28;20242;-67
2023/04/02 11:21:02;;;;;;;0.20;0.20;;;;;;;;;;5059970;28;20247;-67
2023/04/02 11:23:30;;;;;;;0.20;0.20;;;;;;;;;;5071749;28;20398;-67
2023/04/02 11:26:20;;;;;;;0.20;0.20;;;;;;;;;;5059413;28;20254;-67
2023/04/02 11:28:46;;;;;;;0.20;0.20;;;;;;;;;;5049494;28;20282;-67
2023/04/02 11:31:20;;;;;;;0.20;0.20;;;;;;;;;;5061459;28;20561;-67
2023/04/02 11:33:47;;;;;;;0.20;0.20;;;;;;;;;;5069188;28;20195;-68
2023/04/02 11:36:31;;;;;;;0.10;0.10;;;;;;;;;;5061514;28;20288;-57
2023/04/02 11:38:58;;;;;;;0.10;0.10;;;;;;;;;;5067981;28;20375;-58
2023/04/02 11:41:42;;;;;;;0.10;0.10;;;;;;;;;;5062877;28;20258;-58
2023/04/02 11:44:21;;;;;;;0.20;0.20;;;;;;;;;;5065678;28;20255;-58
2023/04/02 11:46:49;;;;;;;0.20;0.20;;;;;;;;;;5066257;28;20524;-59
2023/04/02 11:49:34;;;;;;;0.20;0.20;;;;;;;;;;5066874;28;20375;-58
2023/04/02 11:52:00;;;;;;;0.13;0.13;;;;;;;;;;5071046;28;20252;-59
2023/04/02 11:54:28;;;;;;;0.10;0.10;;;;;;;;;;5067651;28;20231;-60
2023/04/02 11:56:57;;;;;;;0.10;0.10;;;;;;;;;;5070546;28;20415;-68
2023/04/02 11:59:25;;;;;;;0.17;0.17;;;;;;;;;;5068737;28;20271;-69
2023/04/02 12:02:00;;;;;;;0.10;0.10;;;;;;;;;;5069950;28;20292;-69
2023/04/02 12:04:32;;;;;;;0.10;0.10;;;;;;;;;;5068422;28;20257;-69
2023/04/02 12:07:11;;;;;;;0.10;0.10;;;;;;;;;;5071821;28;20256;-69
2023/04/02 12:09:44;;;;;;;0.20;0.20;;;;;;;;;;5067051;28;20196;-69
2023/04/02 12:12:17;;;;;;;0.20;0.20;;;;;;;;;;5072214;28;20234;-69
2023/04/02 12:14:45;;;;;;;0.20;0.20;;;;;;;;;;5066577;28;20199;-68
2023/04/02 12:17:25;;;;;;;0.10;0.10;;;;;;;;;;5071848;28;20242;-66
2023/04/02 12:19:54;;;;;;;0.20;0.20;;;;;;;;;;5066540;28;20193;-68
2023/04/02 12:22:22;;;;;;;0.10;0.10;;;;;;;;;;5071684;28;20281;-67
2023/04/02 12:24:49;;;;;;;0.10;0.10;;;;;;;;;;5066392;28;20275;-65
2023/04/02 12:27:21;;;;;;;0.13;0.13;;;;;;;;;;5071296;28;20250;-65
2023/04/02 12:29:47;;;;;;;0.10;0.10;;;;;;;;;;5066218;28;20194;-65
2023/04/02 12:32:19;;;;;;;0.13;0.13;;;;;;;;;;5071529;28;20460;-67
2023/04/02 12:34:47;;;;;;;0.10;0.10;;;;;;;;;;5068434;28;20256;-64
2023/04/02 12:37:20;;;;;;;1.07;1.03;;;;;;;;;;5071178;28;20290;-65
2023/04/02 12:39:51;;;;;;;0.10;0.10;;;;;;;;;;5066064;28;20417;-65
2023/04/02 12:42:25;;;;;;;0.10;0.10;;;;;;;;;;5071137;28;20566;-65
2023/04/02 12:44:52;;;;;;;0.10;0.10;;;;;;;;;;5065528;28;20212;-67
2023/04/02 12:47:18;;;;;;;0.10;0.10;;;;;;;;;;5071343;28;20431;-67
2023/04/02 12:49:45;;;;;;;0.10;0.10;;;;;;;;;;5066193;28;20279;-68
2023/04/02 12:52:14;;;;;;;0.17;0.17;;;;;;;;;;5070992;28;20305;-64
2023/04/02 12:54:45;;;;;;;0.10;0.10;;;;;;;;;;5066153;28;20233;-71
2023/04/02 12:57:22;;;;;;;0.10;0.10;;;;;;;;;;5070811;28;20508;-71
2023/04/02 12:59:49;;;;;;;0.20;0.20;;;;;;;;;;5065485;28;20246;-71
2023/04/02 13:02:17;;;;;;;0.20;0.20;;;;;;;;;;5071047;28;20265;-70
2023/04/02 13:04:46;;;;;;;0.10;0.10;;;;;;;;;;5065247;28;20246;-68
2023/04/02 13:07:16;;;;;;;0.13;0.13;;;;;;;;;;5071158;28;20303;-70
2023/04/02 13:09:44;;;;;;;0.10;0.10;;;;;;;;;;5065582;28;20276;-70
2023/04/02 13:12:22;;;;;;;0.10;0.10;;;;;;;;;;5070861;28;20298;-71
2023/04/02 13:14:51;;;;;;;0.10;0.10;;;;;;;;;;5065863;28;20260;-65
2023/04/02 13:17:36;;;;;;;0.10;0.10;;;;;;;;;;5070370;28;20477;-64
2023/04/02 13:20:18;;;;;;;0.20;0.20;;;;;;;;;;5065168;28;20247;-62
2023/04/02 13:22:45;;;;;;;0.20;0.20;;;;;;;;;;5064587;28;20197;-71
2023/04/02 13:25:12;;;;;;;0.20;0.20;;;;;;;;;;5055932;28;20496;-71
2023/04/02 13:27:38;;;;;;;0.20;0.20;;;;;;;;;;5080094;28;20457;-73
2023/04/02 13:30:10;;;;;;;0.10;0.10;;;;;;;;;;5065109;28;20291;-70
2023/04/02 13:32:36;;;;;;;0.10;0.10;;;;;;;;;;5053853;28;20404;-63
2023/04/02 13:35:03;;;;;;;0.10;0.10;;;;;;;;;;5064640;28;20227;-68
2023/04/02 13:37:29;;;;;;;0.20;0.20;;;;;;;;;;5071606;28;20240;-68
2023/04/02 13:39:57;;;;;;;0.20;0.20;;;;;;;;;;5064831;28;20363;-66
2023/04/02 13:42:24;;;;;;;0.10;0.10;;;;;;;;;;5069887;28;20238;-67
2023/04/02 13:44:50;;;;;;;0.10;0.10;;;;;;;;;;5064328;28;20299;-62
2023/04/02 13:47:17;;;;;;;0.23;0.23;;;;;;;;;;5069867;28;20565;-66
2023/04/02 13:49:43;;;;;;;0.10;0.10;;;;;;;;;;5065115;28;20234;-66
2023/04/02 13:52:13;;;;;;;0.10;0.10;;;;;;;;;;5069758;28;20239;-66
2023/04/02 13:54:43;;;;;;;0.10;0.10;;;;;;;;;;5064585;28;20200;-66
2023/04/02 13:57:10;;;;;;;0.10;0.10;;;;;;;;;;5069827;28;20262;-66
2023/04/02 13:59:37;;;;;;;0.10;0.10;;;;;;;;;;5064593;28;20513;-66
2023/04/02 14:02:06;;;;;;;0.10;0.10;;;;;;;;;;5069103;28;20238;-66
2023/04/02 14:04:34;;;;;;;0.10;0.10;;;;;;;;;;5064690;28;20232;-67
2023/04/02 14:07:20;;;;;;;0.10;0.10;;;;;;;;;;5069174;28;20250;-67
2023/04/02 14:09:53;;;;;;;0.10;0.10;;;;;;;;;;5064380;28;20206;-66
2023/04/02 14:12:25;;;;;;;0.20;0.20;;;;;;;;;;5069202;28;20483;-66
2023/04/02 14:15:01;;;;;;;0.10;0.10;;;;;;;;;;5064139;28;20192;-66
2023/04/02 14:17:32;;;;;;;0.20;0.20;;;;;;;;;;5069858;28;20235;-63
2023/04/02 14:20:05;;;;;;;0.10;0.10;;;;;;;;;;5064321;28;20193;-63
2023/04/02 14:22:36;;;;;;;1.33;1.23;;;;;;;;;;5069386;28;20240;-66
2023/04/02 14:25:06;;;;;;;0.17;0.17;;;;;;;;;;5063777;28;20255;-61
2023/04/02 14:27:37;;;;;;;0.10;0.10;;;;;;;;;;5052453;28;20275;-61
2023/04/02 14:30:06;;;;;;;0.20;0.20;;;;;;;;;;5064068;28;20264;-65
2023/04/02 14:32:36;;;;;;;0.10;0.10;;;;;;;;;;5052468;28;20280;-67
2023/04/02 14:35:05;;;;;;;0.20;0.20;;;;;;;;;;5064432;28;20201;-66
2023/04/02 14:37:35;;;;;;;0.10;0.10;;;;;;;;;;5069113;28;20555;-60
2023/04/02 14:40:06;;;;;;;0.10;0.10;;;;;;;;;;5063938;28;20220;-63
2023/04/02 14:42:37;;;;;;;0.10;0.10;;;;;;;;;;5052348;28;20452;-63
2023/04/02 14:45:07;;;;;;;0.10;0.10;;;;;;;;;;5063482;28;20250;-67
2023/04/02 14:47:37;;;;;;;0.10;0.10;;;;;;;;;;5052232;28;20207;-65
2023/04/02 14:50:06;;;;;;;0.10;0.10;;;;;;;;;;5063527;28;20205;-66
2023/04/02 14:52:35;;;;;;;0.10;0.10;;;;;;;;;;5052390;28;20208;-67
2023/04/02 14:55:03;;;;;;;0.10;0.10;;;;;;;;;;5064076;28;20204;-65
2023/04/02 14:57:30;;;;;;;0.10;0.10;;;;;;;;;;5069042;28;20242;-66